createdAt,value
2017-01-27T00:00:33.509Z,1008.12
2017-01-27T00:01:13.949Z,1008.14
2017-01-27T00:01:54.453Z,1008.12
2017-01-27T00:02:34.960Z,1008.1
2017-01-27T00:03:15.816Z,1008.07
2017-01-27T00:03:56.355Z,1008.07
2017-01-27T00:04:36.875Z,1008.15
2017-01-27T00:05:17.387Z,1008.09
2017-01-27T00:05:57.902Z,1008.14
2017-01-27T00:06:38.391Z,1008.15
2017-01-27T00:07:18.912Z,1008.11
2017-01-27T00:07:59.419Z,1008.13
2017-01-27T00:08:39.948Z,1008.11
2017-01-27T00:09:20.464Z,1008.14
2017-01-27T00:10:01.002Z,1008.13
2017-01-27T00:10:41.498Z,1008.15
2017-01-27T00:11:22.019Z,1008.18
2017-01-27T00:12:02.560Z,1008.18
2017-01-27T00:12:43.099Z,1008.18
2017-01-27T00:13:23.583Z,1008.19
2017-01-27T00:14:04.131Z,1008.12
2017-01-27T00:14:44.680Z,1008.15
2017-01-27T00:15:25.197Z,1008.11
2017-01-27T00:16:05.708Z,1008.15
2017-01-27T00:16:46.217Z,1008.11
2017-01-27T00:17:26.722Z,1008.11
2017-01-27T00:18:07.290Z,1008.12
2017-01-27T00:18:47.758Z,1008.12
2017-01-27T00:19:28.236Z,1008.11
2017-01-27T00:20:08.753Z,1008.08
2017-01-27T00:20:49.267Z,1008.11
2017-01-27T00:21:29.769Z,1008.12
2017-01-27T00:22:10.296Z,1008.1
2017-01-27T00:22:50.856Z,1008.05
2017-01-27T00:23:31.300Z,1008.09
2017-01-27T00:24:11.805Z,1008.08
2017-01-27T00:24:52.326Z,1008.13
2017-01-27T00:25:32.824Z,1008.11
2017-01-27T00:26:13.337Z,1008.15
2017-01-27T00:26:53.855Z,1008.15
2017-01-27T00:27:34.362Z,1008.17
2017-01-27T00:28:14.888Z,1008.09
2017-01-27T00:28:55.404Z,1008.11
2017-01-27T00:29:35.921Z,1008.11
2017-01-27T00:30:16.646Z,1008.14
2017-01-27T00:30:57.134Z,1008.11
2017-01-27T00:31:37.666Z,1008.11
2017-01-27T00:32:18.138Z,1008.13
2017-01-27T00:32:58.636Z,1008.07
2017-01-27T00:33:39.110Z,1008.06
2017-01-27T00:34:19.622Z,1008.08
2017-01-27T00:35:00.099Z,1008.14
2017-01-27T00:35:40.591Z,1008.14
2017-01-27T00:36:21.133Z,1008.13
2017-01-27T00:37:01.607Z,1008.11
2017-01-27T00:37:42.087Z,1008.19
2017-01-27T00:38:22.594Z,1008.15
2017-01-27T00:39:03.124Z,1008.18
2017-01-27T00:39:43.620Z,1008.19
2017-01-27T00:40:24.142Z,1008.21
2017-01-27T00:41:04.660Z,1008.18
2017-01-27T00:41:45.196Z,1008.13
2017-01-27T00:42:25.735Z,1008.11
2017-01-27T00:43:06.254Z,1008.11
2017-01-27T00:43:46.778Z,1008.11
2017-01-27T00:44:27.298Z,1008.09
2017-01-27T00:45:07.825Z,1008.09
2017-01-27T00:45:48.336Z,1008.13
2017-01-27T00:46:28.866Z,1008.11
2017-01-27T00:47:09.390Z,1008.07
2017-01-27T00:47:49.898Z,1008.07
2017-01-27T00:48:30.410Z,1008.04
2017-01-27T00:49:10.932Z,1007.98
2017-01-27T00:49:51.471Z,1008.01
2017-01-27T00:50:31.983Z,1007.98
2017-01-27T00:51:12.500Z,1008.04
2017-01-27T00:51:53.007Z,1008.03
2017-01-27T00:52:33.529Z,1008.05
2017-01-27T00:53:14.058Z,1008.02
2017-01-27T00:53:54.563Z,1007.97
2017-01-27T00:54:35.075Z,1007.88
2017-01-27T00:55:15.619Z,1007.84
2017-01-27T00:55:56.131Z,1007.8
2017-01-27T00:56:36.654Z,1007.82
2017-01-27T00:57:17.172Z,1007.82
2017-01-27T00:57:57.683Z,1007.82
2017-01-27T00:58:38.197Z,1007.83
2017-01-27T00:59:18.722Z,1007.83
2017-01-27T00:59:59.234Z,1007.83
2017-01-27T01:00:39.759Z,1007.77
2017-01-27T01:01:20.268Z,1007.8
2017-01-27T01:02:00.771Z,1007.88
2017-01-27T01:02:41.298Z,1007.94
2017-01-27T01:03:21.802Z,1007.9
2017-01-27T01:04:02.300Z,1007.93
2017-01-27T01:04:42.794Z,1007.89
2017-01-27T01:05:23.255Z,1007.83
2017-01-27T01:06:03.777Z,1007.79
2017-01-27T01:06:44.271Z,1007.75
2017-01-27T01:07:24.760Z,1007.81
2017-01-27T01:08:05.257Z,1007.89
2017-01-27T01:08:45.769Z,1007.91
2017-01-27T01:09:26.283Z,1007.94
2017-01-27T01:10:06.780Z,1007.89
2017-01-27T01:10:47.294Z,1007.84
2017-01-27T01:11:27.836Z,1007.78
2017-01-27T01:12:08.325Z,1007.77
2017-01-27T01:12:48.839Z,1007.77
2017-01-27T01:13:29.356Z,1007.87
2017-01-27T01:14:09.869Z,1007.94
2017-01-27T01:14:50.371Z,1007.93
2017-01-27T01:15:30.884Z,1007.89
2017-01-27T01:16:11.404Z,1007.85
2017-01-27T01:16:51.886Z,1007.81
2017-01-27T01:17:32.412Z,1007.83
2017-01-27T01:18:12.920Z,1007.89
2017-01-27T01:18:53.420Z,1007.94
2017-01-27T01:19:33.946Z,1007.97
2017-01-27T01:20:14.430Z,1008.03
2017-01-27T01:20:54.928Z,1008.03
2017-01-27T01:21:35.496Z,1008.03
2017-01-27T01:22:16.001Z,1008.07
2017-01-27T01:22:56.503Z,1008.02
2017-01-27T01:23:37.031Z,1008.03
2017-01-27T01:24:17.530Z,1008.02
2017-01-27T01:24:58.053Z,1008.06
2017-01-27T01:25:38.562Z,1008.14
2017-01-27T01:26:19.065Z,1008.14
2017-01-27T01:26:59.581Z,1008.15
2017-01-27T01:27:40.090Z,1008.16
2017-01-27T01:28:20.609Z,1008.2
2017-01-27T01:29:01.152Z,1008.2
2017-01-27T01:29:41.645Z,1008.19
2017-01-27T01:30:22.161Z,1008.2
2017-01-27T01:31:02.671Z,1008.26
2017-01-27T01:31:43.180Z,1008.24
2017-01-27T01:32:23.694Z,1008.26
2017-01-27T01:33:04.204Z,1008.25
2017-01-27T01:33:44.728Z,1008.22
2017-01-27T01:34:25.220Z,1008.2
2017-01-27T01:35:05.750Z,1008.19
2017-01-27T01:35:46.255Z,1008.2
2017-01-27T01:36:26.769Z,1008.2
2017-01-27T01:37:07.295Z,1008.11
2017-01-27T01:37:47.817Z,1008.11
2017-01-27T01:38:28.347Z,1008.11
2017-01-27T01:39:08.854Z,1008.14
2017-01-27T01:39:49.371Z,1008.16
2017-01-27T01:40:29.900Z,1008.1
2017-01-27T01:41:10.425Z,1008.11
2017-01-27T01:41:50.934Z,1008.15
2017-01-27T01:42:31.446Z,1008.18
2017-01-27T01:43:11.961Z,1008.21
2017-01-27T01:43:52.465Z,1008.19
2017-01-27T01:44:32.993Z,1008.17
2017-01-27T01:45:13.518Z,1008.14
2017-01-27T01:45:54.047Z,1008.14
2017-01-27T01:46:34.542Z,1008.1
2017-01-27T01:47:15.232Z,1008.11
2017-01-27T01:47:55.749Z,1008.12
2017-01-27T01:48:36.296Z,1008.16
2017-01-27T01:49:16.809Z,1008.16
2017-01-27T01:49:57.327Z,1008.22
2017-01-27T01:50:37.859Z,1008.18
2017-01-27T01:51:18.400Z,1008.26
2017-01-27T01:51:58.928Z,1008.28
2017-01-27T01:52:39.496Z,1008.29
2017-01-27T01:53:20.028Z,1008.33
2017-01-27T01:54:00.551Z,1008.33
2017-01-27T01:54:41.085Z,1008.31
2017-01-27T01:55:21.610Z,1008.26
2017-01-27T01:56:02.151Z,1008.31
2017-01-27T01:56:42.711Z,1008.4
2017-01-27T01:57:23.245Z,1008.41
2017-01-27T01:58:03.763Z,1008.36
2017-01-27T01:58:44.337Z,1008.36
2017-01-27T01:59:24.899Z,1008.37
2017-01-27T02:00:05.461Z,1008.28
2017-01-27T02:00:45.997Z,1008.33
2017-01-27T02:01:26.555Z,1008.39
2017-01-27T02:02:07.106Z,1008.37
2017-01-27T02:02:47.676Z,1008.4
2017-01-27T02:03:28.215Z,1008.39
2017-01-27T02:04:08.756Z,1008.32
2017-01-27T02:04:49.309Z,1008.34
2017-01-27T02:05:29.861Z,1008.36
2017-01-27T02:06:10.408Z,1008.37
2017-01-27T02:06:50.951Z,1008.36
2017-01-27T02:07:31.511Z,1008.37
2017-01-27T02:08:12.065Z,1008.39
2017-01-27T02:08:52.607Z,1008.4
2017-01-27T02:09:33.156Z,1008.38
2017-01-27T02:10:13.734Z,1008.4
2017-01-27T02:10:54.279Z,1008.39
2017-01-27T02:11:34.830Z,1008.43
2017-01-27T02:12:15.375Z,1008.46
2017-01-27T02:12:55.932Z,1008.46
2017-01-27T02:13:36.481Z,1008.37
2017-01-27T02:14:17.023Z,1008.37
2017-01-27T02:14:57.569Z,1008.35
2017-01-27T02:15:38.130Z,1008.34
2017-01-27T02:16:18.673Z,1008.31
2017-01-27T02:16:59.222Z,1008.31
2017-01-27T02:17:39.776Z,1008.29
2017-01-27T02:18:20.319Z,1008.35
2017-01-27T02:19:00.881Z,1008.31
2017-01-27T02:19:41.419Z,1008.29
2017-01-27T02:20:21.985Z,1008.31
2017-01-27T02:21:02.536Z,1008.27
2017-01-27T02:21:43.097Z,1008.2
2017-01-27T02:22:23.627Z,1008.21
2017-01-27T02:23:04.196Z,1008.22
2017-01-27T02:23:44.740Z,1008.23
2017-01-27T02:24:25.268Z,1008.22
2017-01-27T02:25:05.833Z,1008.24
2017-01-27T02:25:46.392Z,1008.25
2017-01-27T02:26:26.932Z,1008.27
2017-01-27T02:27:07.479Z,1008.3
2017-01-27T02:27:48.044Z,1008.27
2017-01-27T02:28:28.584Z,1008.21
2017-01-27T02:29:09.155Z,1008.18
2017-01-27T02:29:49.713Z,1008.2
2017-01-27T02:30:30.243Z,1008.19
2017-01-27T02:31:10.798Z,1008.16
2017-01-27T02:31:51.323Z,1008.19
2017-01-27T02:32:31.878Z,1008.18
2017-01-27T02:33:12.435Z,1008.19
2017-01-27T02:33:52.982Z,1008.12
2017-01-27T02:34:33.538Z,1008.12
2017-01-27T02:35:14.057Z,1008.08
2017-01-27T02:35:54.626Z,1008.03
2017-01-27T02:36:35.153Z,1008.05
2017-01-27T02:37:15.688Z,1008.04
2017-01-27T02:37:56.239Z,1008.07
2017-01-27T02:38:36.837Z,1008.1
2017-01-27T02:39:17.411Z,1008.18
2017-01-27T02:39:57.942Z,1008.18
2017-01-27T02:40:38.461Z,1008.21
2017-01-27T02:41:19.001Z,1008.2
2017-01-27T02:41:59.550Z,1008.12
2017-01-27T02:42:40.109Z,1008.11
2017-01-27T02:43:20.648Z,1008.05
2017-01-27T02:44:01.193Z,1008.12
2017-01-27T02:44:41.728Z,1008.15
2017-01-27T02:45:22.278Z,1008.18
2017-01-27T02:46:02.847Z,1008.2
2017-01-27T02:46:43.378Z,1008.13
2017-01-27T02:47:23.944Z,1008.2
2017-01-27T02:48:04.472Z,1008.14
2017-01-27T02:48:45.018Z,1008.18
2017-01-27T02:49:25.551Z,1008.19
2017-01-27T02:50:06.114Z,1008.17
2017-01-27T02:50:46.652Z,1008.19
2017-01-27T02:51:27.227Z,1008.17
2017-01-27T02:52:07.750Z,1008.14
2017-01-27T02:52:48.323Z,1008.15
2017-01-27T02:53:28.837Z,1008.17
2017-01-27T02:54:09.412Z,1008.18
2017-01-27T02:54:49.939Z,1008.26
2017-01-27T02:55:30.494Z,1008.29
2017-01-27T02:56:11.031Z,1008.28
2017-01-27T02:56:51.555Z,1008.31
2017-01-27T02:57:32.095Z,1008.27
2017-01-27T02:58:12.618Z,1008.37
2017-01-27T02:58:53.171Z,1008.31
2017-01-27T02:59:33.703Z,1008.3
2017-01-27T03:00:14.250Z,1008.3
2017-01-27T03:00:54.803Z,1008.34
2017-01-27T03:01:35.352Z,1008.31
2017-01-27T03:02:15.898Z,1008.33
2017-01-27T03:02:56.473Z,1008.32
2017-01-27T03:03:37.026Z,1008.29
2017-01-27T03:04:17.581Z,1008.34
2017-01-27T03:04:58.093Z,1008.43
2017-01-27T03:05:38.639Z,1008.39
2017-01-27T03:06:19.203Z,1008.38
2017-01-27T03:06:59.770Z,1008.34
2017-01-27T03:07:40.310Z,1008.38
2017-01-27T03:08:20.870Z,1008.41
2017-01-27T03:09:01.424Z,1008.42
2017-01-27T03:09:41.967Z,1008.38
2017-01-27T03:10:22.533Z,1008.39
2017-01-27T03:11:03.091Z,1008.42
2017-01-27T03:11:43.675Z,1008.34
2017-01-27T03:12:24.229Z,1008.35
2017-01-27T03:13:04.756Z,1008.31
2017-01-27T03:13:45.307Z,1008.28
2017-01-27T03:14:25.850Z,1008.28
2017-01-27T03:15:06.412Z,1008.35
2017-01-27T03:15:46.997Z,1008.4
2017-01-27T03:16:27.539Z,1008.39
2017-01-27T03:17:08.074Z,1008.36
2017-01-27T03:17:48.624Z,1008.37
2017-01-27T03:18:29.164Z,1008.38
2017-01-27T03:19:09.695Z,1008.36
2017-01-27T03:19:50.233Z,1008.34
2017-01-27T03:20:30.761Z,1008.35
2017-01-27T03:21:11.305Z,1008.29
2017-01-27T03:21:51.861Z,1008.35
2017-01-27T03:22:32.438Z,1008.33
2017-01-27T03:23:12.979Z,1008.37
2017-01-27T03:23:53.521Z,1008.33
2017-01-27T03:24:34.086Z,1008.32
2017-01-27T03:25:14.655Z,1008.35
2017-01-27T03:25:55.201Z,1008.37
2017-01-27T03:26:35.732Z,1008.43
2017-01-27T03:27:16.261Z,1008.46
2017-01-27T03:27:56.795Z,1008.4
2017-01-27T03:28:37.345Z,1008.46
2017-01-27T03:29:17.895Z,1008.42
2017-01-27T03:29:58.447Z,1008.48
2017-01-27T03:30:38.975Z,1008.47
2017-01-27T03:31:19.501Z,1008.47
2017-01-27T03:32:00.048Z,1008.47
2017-01-27T03:32:40.596Z,1008.52
2017-01-27T03:33:21.138Z,1008.45
2017-01-27T03:34:01.678Z,1008.48
2017-01-27T03:34:42.236Z,1008.5
2017-01-27T03:35:22.776Z,1008.44
2017-01-27T03:36:03.343Z,1008.46
2017-01-27T03:36:43.875Z,1008.48
2017-01-27T03:37:24.418Z,1008.45
2017-01-27T03:38:04.954Z,1008.5
2017-01-27T03:38:45.504Z,1008.44
2017-01-27T03:39:26.043Z,1008.45
2017-01-27T03:40:06.598Z,1008.41
2017-01-27T03:40:47.144Z,1008.37
2017-01-27T03:41:27.665Z,1008.42
2017-01-27T03:42:08.182Z,1008.36
2017-01-27T03:42:48.748Z,1008.38
2017-01-27T03:43:29.262Z,1008.38
2017-01-27T03:44:09.782Z,1008.32
2017-01-27T03:44:50.283Z,1008.32
2017-01-27T03:45:30.799Z,1008.29
2017-01-27T03:46:11.327Z,1008.28
2017-01-27T03:46:51.833Z,1008.28
2017-01-27T03:47:32.349Z,1008.27
2017-01-27T03:48:12.847Z,1008.33
2017-01-27T03:48:53.365Z,1008.29
2017-01-27T03:49:33.860Z,1008.34
2017-01-27T03:50:14.357Z,1008.26
2017-01-27T03:50:54.866Z,1008.27
2017-01-27T03:51:35.391Z,1008.25
2017-01-27T03:52:15.917Z,1008.17
2017-01-27T03:52:56.428Z,1008.19
2017-01-27T03:53:36.944Z,1008.23
2017-01-27T03:54:17.461Z,1008.14
2017-01-27T03:54:57.981Z,1008.07
2017-01-27T03:55:38.497Z,1008
2017-01-27T03:56:19.025Z,1008.02
2017-01-27T03:56:59.539Z,1008.04
2017-01-27T03:57:40.052Z,1007.98
2017-01-27T03:58:20.578Z,1007.9
2017-01-27T03:59:01.103Z,1007.91
2017-01-27T03:59:41.602Z,1007.9
2017-01-27T04:00:22.110Z,1007.91
2017-01-27T04:01:02.612Z,1008.02
2017-01-27T04:01:43.135Z,1008.06
2017-01-27T04:02:23.659Z,1008.05
2017-01-27T04:03:04.188Z,1008.02
2017-01-27T04:03:44.699Z,1008.07
2017-01-27T04:04:25.221Z,1008.03
2017-01-27T04:05:05.752Z,1008.05
2017-01-27T04:05:46.251Z,1008.05
2017-01-27T04:06:26.767Z,1008.01
2017-01-27T04:07:07.266Z,1008.08
2017-01-27T04:07:47.780Z,1008.12
2017-01-27T04:08:28.303Z,1008.09
2017-01-27T04:09:08.811Z,1008.11
2017-01-27T04:09:49.334Z,1008.04
2017-01-27T04:10:29.892Z,1008.04
2017-01-27T04:11:10.428Z,1007.99
2017-01-27T04:11:50.982Z,1007.98
2017-01-27T04:12:31.491Z,1007.95
2017-01-27T04:13:12.000Z,1007.96
2017-01-27T04:13:52.534Z,1007.96
2017-01-27T04:14:33.054Z,1007.96
2017-01-27T04:15:13.552Z,1007.96
2017-01-27T04:15:54.077Z,1007.96
2017-01-27T04:16:34.605Z,1007.99
2017-01-27T04:17:15.125Z,1008.03
2017-01-27T04:17:55.619Z,1008.12
2017-01-27T04:18:36.132Z,1008.08
2017-01-27T04:19:16.637Z,1008.06
2017-01-27T04:19:57.175Z,1008.01
2017-01-27T04:20:37.672Z,1008.07
2017-01-27T04:21:18.191Z,1008.02
2017-01-27T04:21:58.704Z,1008.02
2017-01-27T04:22:39.227Z,1007.99
2017-01-27T04:23:19.738Z,1007.95
2017-01-27T04:25:38.104Z,1007.94
2017-01-27T04:26:18.639Z,1007.87
2017-01-27T04:26:59.144Z,1007.85
2017-01-27T04:27:39.647Z,1007.87
2017-01-27T04:28:20.157Z,1007.86
2017-01-27T04:29:00.671Z,1007.91
2017-01-27T04:29:41.193Z,1007.99
2017-01-27T04:30:21.695Z,1008.02
2017-01-27T04:31:02.214Z,1008.04
2017-01-27T04:31:42.722Z,1008.09
2017-01-27T04:32:23.247Z,1008.06
2017-01-27T04:33:03.746Z,1008.05
2017-01-27T04:33:44.255Z,1008.02
2017-01-27T04:34:24.756Z,1008.06
2017-01-27T04:35:05.267Z,1008.06
2017-01-27T04:35:45.788Z,1008.13
2017-01-27T04:36:26.302Z,1008.24
2017-01-27T04:37:06.810Z,1008.23
2017-01-27T04:37:47.317Z,1008.2
2017-01-27T04:38:27.832Z,1008.12
2017-01-27T04:39:08.382Z,1008.08
2017-01-27T04:39:48.885Z,1008.09
2017-01-27T04:40:29.417Z,1008.1
2017-01-27T04:41:09.919Z,1008.11
2017-01-27T04:41:50.423Z,1008.14
2017-01-27T04:42:30.947Z,1008.18
2017-01-27T04:43:11.456Z,1008.12
2017-01-27T04:43:51.967Z,1008.06
2017-01-27T04:44:32.485Z,1008.04
2017-01-27T04:45:13.011Z,1008.03
2017-01-27T04:45:53.531Z,1008.01
2017-01-27T04:46:34.040Z,1008.12
2017-01-27T04:47:14.577Z,1008.13
2017-01-27T04:47:55.109Z,1008.17
2017-01-27T04:48:35.610Z,1008.24
2017-01-27T04:49:16.113Z,1008.22
2017-01-27T04:49:56.615Z,1008.15
2017-01-27T04:50:37.129Z,1008.11
2017-01-27T04:51:17.616Z,1008.12
2017-01-27T04:51:58.137Z,1008.08
2017-01-27T04:52:38.662Z,1008.08
2017-01-27T04:53:19.161Z,1008.07
2017-01-27T04:53:59.660Z,1008.08
2017-01-27T04:54:40.176Z,1008.11
2017-01-27T04:55:20.694Z,1008.12
2017-01-27T04:56:01.212Z,1008.15
2017-01-27T04:56:41.724Z,1008.16
2017-01-27T04:57:22.248Z,1008.09
2017-01-27T04:58:02.764Z,1008.05
2017-01-27T04:58:43.277Z,1008.04
2017-01-27T04:59:23.799Z,1008.06
2017-01-27T05:00:04.311Z,1007.99
2017-01-27T05:00:44.838Z,1007.98
2017-01-27T05:01:25.383Z,1007.96
2017-01-27T05:02:05.910Z,1007.96
2017-01-27T05:02:46.447Z,1007.9
2017-01-27T05:03:26.970Z,1007.96
2017-01-27T05:04:07.494Z,1007.96
2017-01-27T05:04:48.009Z,1007.93
2017-01-27T05:05:28.520Z,1007.95
2017-01-27T05:06:09.036Z,1007.94
2017-01-27T05:06:49.554Z,1007.88
2017-01-27T05:07:30.059Z,1007.87
2017-01-27T05:08:10.574Z,1007.91
2017-01-27T05:08:51.082Z,1007.95
2017-01-27T05:09:31.599Z,1007.94
2017-01-27T05:10:12.127Z,1007.92
2017-01-27T05:10:52.643Z,1007.85
2017-01-27T05:11:33.155Z,1007.89
2017-01-27T05:12:13.669Z,1007.8
2017-01-27T05:12:54.208Z,1007.81
2017-01-27T05:13:34.685Z,1007.82
2017-01-27T05:14:15.202Z,1007.83
2017-01-27T05:14:55.725Z,1007.88
2017-01-27T05:15:36.222Z,1007.88
2017-01-27T05:16:16.740Z,1007.82
2017-01-27T05:16:57.229Z,1007.83
2017-01-27T05:17:37.733Z,1007.84
2017-01-27T05:18:18.267Z,1007.91
2017-01-27T05:18:58.799Z,1007.88
2017-01-27T05:19:39.305Z,1007.85
2017-01-27T05:20:19.833Z,1007.85
2017-01-27T05:21:00.352Z,1007.86
2017-01-27T05:21:40.862Z,1007.89
2017-01-27T05:22:21.356Z,1007.91
2017-01-27T05:23:01.866Z,1007.85
2017-01-27T05:23:42.384Z,1007.87
2017-01-27T05:24:22.900Z,1007.8
2017-01-27T05:25:03.407Z,1007.87
2017-01-27T05:25:43.928Z,1007.89
2017-01-27T05:26:24.442Z,1007.96
2017-01-27T05:27:04.944Z,1007.88
2017-01-27T05:27:45.461Z,1007.84
2017-01-27T05:28:25.982Z,1007.76
2017-01-27T05:29:06.496Z,1007.8
2017-01-27T05:29:47.027Z,1007.84
2017-01-27T05:30:27.530Z,1007.86
2017-01-27T05:31:08.042Z,1007.85
2017-01-27T05:31:48.575Z,1007.93
2017-01-27T05:32:29.077Z,1007.89
2017-01-27T05:33:09.595Z,1007.89
2017-01-27T05:33:50.114Z,1007.9
2017-01-27T05:34:30.620Z,1007.95
2017-01-27T05:35:11.139Z,1007.93
2017-01-27T05:35:51.703Z,1007.9
2017-01-27T05:36:32.218Z,1007.91
2017-01-27T05:37:12.740Z,1007.9
2017-01-27T05:37:53.245Z,1007.96
2017-01-27T05:38:33.822Z,1007.99
2017-01-27T05:39:14.260Z,1007.98
2017-01-27T05:39:54.775Z,1007.99
2017-01-27T05:40:35.280Z,1008.02
2017-01-27T05:41:15.797Z,1007.97
2017-01-27T05:41:56.289Z,1007.97
2017-01-27T05:42:36.800Z,1007.98
2017-01-27T05:43:17.300Z,1007.97
2017-01-27T05:43:57.826Z,1008.01
2017-01-27T05:44:38.311Z,1007.96
2017-01-27T05:45:18.826Z,1007.96
2017-01-27T05:45:59.340Z,1007.97
2017-01-27T05:46:39.866Z,1007.93
2017-01-27T05:47:20.377Z,1008
2017-01-27T05:48:00.886Z,1007.96
2017-01-27T05:48:41.395Z,1008.03
2017-01-27T05:49:21.901Z,1007.99
2017-01-27T05:50:02.385Z,1007.99
2017-01-27T05:50:42.862Z,1008
2017-01-27T05:51:23.367Z,1007.99
2017-01-27T05:52:03.892Z,1008.05
2017-01-27T05:52:44.405Z,1008.04
2017-01-27T05:53:24.918Z,1008.01
2017-01-27T05:54:05.430Z,1008.01
2017-01-27T05:54:45.929Z,1008.07
2017-01-27T05:55:26.438Z,1008.1
2017-01-27T05:56:06.915Z,1008.05
2017-01-27T05:56:47.384Z,1008.03
2017-01-27T05:57:27.867Z,1008.02
2017-01-27T05:58:08.352Z,1008.02
2017-01-27T05:58:48.844Z,1008.1
2017-01-27T05:59:29.348Z,1008.08
2017-01-27T06:00:09.843Z,1008.04
2017-01-27T06:00:50.357Z,1007.99
2017-01-27T06:01:30.867Z,1008.03
2017-01-27T06:02:11.371Z,1008.03
2017-01-27T06:02:51.905Z,1008.07
2017-01-27T06:03:32.377Z,1008.05
2017-01-27T06:04:12.894Z,1008.09
2017-01-27T06:04:53.415Z,1008.05
2017-01-27T06:05:33.924Z,1008.1
2017-01-27T06:06:14.438Z,1008.1
2017-01-27T06:06:54.931Z,1008.09
2017-01-27T06:07:35.432Z,1008.1
2017-01-27T06:08:15.924Z,1008.12
2017-01-27T06:08:56.430Z,1008.16
2017-01-27T06:09:36.940Z,1008.13
2017-01-27T06:10:17.468Z,1008.17
2017-01-27T06:10:57.980Z,1008.09
2017-01-27T06:11:38.489Z,1008.13
2017-01-27T06:12:18.992Z,1008.04
2017-01-27T06:12:59.504Z,1008.09
2017-01-27T06:13:40.007Z,1008.12
2017-01-27T06:14:20.538Z,1008.12
2017-01-27T06:15:01.043Z,1008.14
2017-01-27T06:15:41.608Z,1008.08
2017-01-27T06:16:22.124Z,1008.13
2017-01-27T06:17:02.630Z,1008.14
2017-01-27T06:17:43.137Z,1008.21
2017-01-27T06:18:23.643Z,1008.24
2017-01-27T06:19:04.090Z,1008.12
2017-01-27T06:19:44.585Z,1008.14
2017-01-27T06:20:25.112Z,1008.13
2017-01-27T06:21:05.586Z,1008.16
2017-01-27T06:21:46.141Z,1008.15
2017-01-27T06:22:26.658Z,1008.19
2017-01-27T06:23:07.277Z,1008.2
2017-01-27T06:23:47.763Z,1008.13
2017-01-27T06:24:28.234Z,1008.13
2017-01-27T06:25:08.807Z,1008.17
2017-01-27T06:25:49.269Z,1008.11
2017-01-27T06:26:29.787Z,1008.14
2017-01-27T06:27:10.305Z,1008.23
2017-01-27T06:27:50.826Z,1008.16
2017-01-27T06:28:31.316Z,1008.15
2017-01-27T06:29:11.824Z,1008.21
2017-01-27T06:29:52.329Z,1008.2
2017-01-27T06:30:32.857Z,1008.22
2017-01-27T06:31:13.367Z,1008.22
2017-01-27T06:31:53.854Z,1008.24
2017-01-27T06:32:34.434Z,1008.22
2017-01-27T06:33:14.868Z,1008.16
2017-01-27T06:33:55.373Z,1008.21
2017-01-27T06:34:36.005Z,1008.17
2017-01-27T06:35:16.510Z,1008.17
2017-01-27T06:35:57.025Z,1008.28
2017-01-27T06:36:37.523Z,1008.26
2017-01-27T06:37:18.011Z,1008.25
2017-01-27T06:37:58.523Z,1008.27
2017-01-27T06:38:39.025Z,1008.29
2017-01-27T06:39:19.525Z,1008.28
2017-01-27T06:40:00.028Z,1008.29
2017-01-27T06:40:40.523Z,1008.38
2017-01-27T06:41:21.035Z,1008.36
2017-01-27T06:42:01.557Z,1008.35
2017-01-27T06:42:42.047Z,1008.32
2017-01-27T06:43:22.517Z,1008.32
2017-01-27T06:44:03.104Z,1008.32
2017-01-27T06:44:43.588Z,1008.28
2017-01-27T06:45:24.081Z,1008.34
2017-01-27T06:46:04.605Z,1008.4
2017-01-27T06:46:45.103Z,1008.43
2017-01-27T06:47:25.601Z,1008.38
2017-01-27T06:48:06.131Z,1008.39
2017-01-27T06:48:46.654Z,1008.44
2017-01-27T06:49:27.819Z,1008.44
2017-01-27T06:50:08.338Z,1008.47
2017-01-27T06:50:48.910Z,1008.45
2017-01-27T06:51:30.482Z,1008.43
2017-01-27T06:52:10.859Z,1008.48
2017-01-27T06:52:51.478Z,1008.46
2017-01-27T06:53:31.939Z,1008.41
2017-01-27T06:54:12.563Z,1008.48
2017-01-27T06:54:53.125Z,1008.45
2017-01-27T06:55:33.634Z,1008.43
2017-01-27T06:56:14.130Z,1008.48
2017-01-27T06:56:54.644Z,1008.46
2017-01-27T06:57:35.169Z,1008.48
2017-01-27T06:58:15.709Z,1008.47
2017-01-27T06:58:57.170Z,1008.48
2017-01-27T06:59:37.700Z,1008.5
2017-01-27T07:00:18.813Z,1008.54
2017-01-27T07:00:59.405Z,1008.6
2017-01-27T07:01:39.891Z,1008.63
2017-01-27T07:02:20.364Z,1008.63
2017-01-27T07:03:00.851Z,1008.68
2017-01-27T07:03:41.317Z,1008.74
2017-01-27T07:04:21.805Z,1008.77
2017-01-27T07:05:02.750Z,1008.73
2017-01-27T07:05:43.214Z,1008.76
2017-01-27T07:06:23.681Z,1008.76
2017-01-27T07:07:04.175Z,1008.83
2017-01-27T07:07:44.672Z,1008.81
2017-01-27T07:08:25.294Z,1008.8
2017-01-27T07:09:05.832Z,1008.79
2017-01-27T07:09:46.262Z,1008.81
2017-01-27T07:10:26.873Z,1008.79
2017-01-27T07:11:07.357Z,1008.81
2017-01-27T07:11:47.846Z,1008.81
2017-01-27T07:12:28.346Z,1008.78
2017-01-27T07:13:09.102Z,1008.79
2017-01-27T07:13:49.613Z,1008.75
2017-01-27T07:14:30.154Z,1008.73
2017-01-27T07:15:10.645Z,1008.69
2017-01-27T07:15:51.159Z,1008.69
2017-01-27T07:16:31.764Z,1008.71
2017-01-27T07:17:12.279Z,1008.71
2017-01-27T07:17:52.821Z,1008.72
2017-01-27T07:18:33.731Z,1008.72
2017-01-27T07:19:14.226Z,1008.72
2017-01-27T07:19:54.751Z,1008.75
2017-01-27T07:20:35.227Z,1008.78
2017-01-27T07:21:15.730Z,1008.82
2017-01-27T07:21:56.225Z,1008.87
2017-01-27T07:22:36.733Z,1008.84
2017-01-27T07:23:17.228Z,1008.88
2017-01-27T07:23:57.998Z,1008.89
2017-01-27T07:24:38.329Z,1008.89
2017-01-27T07:25:18.892Z,1008.9
2017-01-27T07:25:59.389Z,1008.91
2017-01-27T07:26:39.848Z,1008.91
2017-01-27T07:27:20.336Z,1008.87
2017-01-27T07:28:00.826Z,1008.96
2017-01-27T07:28:41.318Z,1008.96
2017-01-27T07:29:21.812Z,1008.92
2017-01-27T07:30:02.321Z,1008.92
2017-01-27T07:30:42.780Z,1008.93
2017-01-27T07:31:23.248Z,1008.89
2017-01-27T07:32:03.788Z,1008.89
2017-01-27T07:32:44.280Z,1008.88
2017-01-27T07:33:24.768Z,1008.91
2017-01-27T07:34:05.269Z,1008.93
2017-01-27T07:34:45.782Z,1008.92
2017-01-27T07:35:26.260Z,1008.98
2017-01-27T07:36:06.769Z,1008.95
2017-01-27T07:36:47.246Z,1008.97
2017-01-27T07:37:27.763Z,1008.92
2017-01-27T07:38:08.257Z,1008.91
2017-01-27T07:38:48.753Z,1008.94
2017-01-27T07:39:29.242Z,1008.91
2017-01-27T07:40:09.729Z,1008.92
2017-01-27T07:40:50.234Z,1008.95
2017-01-27T07:41:30.731Z,1008.98
2017-01-27T07:42:11.232Z,1008.97
2017-01-27T07:42:51.709Z,1009
2017-01-27T07:43:32.200Z,1009.02
2017-01-27T07:44:12.701Z,1009.08
2017-01-27T07:44:53.192Z,1009.07
2017-01-27T07:45:33.683Z,1009.12
2017-01-27T07:46:14.215Z,1009.05
2017-01-27T07:46:54.665Z,1009.03
2017-01-27T07:47:35.160Z,1008.96
2017-01-27T07:48:15.658Z,1009.04
2017-01-27T07:48:56.140Z,1009
2017-01-27T07:49:36.638Z,1009.07
2017-01-27T07:50:17.119Z,1009.05
2017-01-27T07:50:57.635Z,1009.04
2017-01-27T07:51:38.140Z,1009
2017-01-27T07:52:18.634Z,1008.97
2017-01-27T07:52:59.131Z,1009
2017-01-27T07:53:39.639Z,1008.98
2017-01-27T07:54:20.118Z,1008.96
2017-01-27T07:55:00.680Z,1008.95
2017-01-27T07:55:41.180Z,1008.97
2017-01-27T07:56:21.652Z,1008.95
2017-01-27T07:57:02.134Z,1008.95
2017-01-27T07:57:42.665Z,1008.98
2017-01-27T07:58:23.130Z,1008.99
2017-01-27T07:59:03.640Z,1008.93
2017-01-27T07:59:44.125Z,1008.93
2017-01-27T08:00:24.629Z,1008.98
2017-01-27T08:01:05.106Z,1009.04
2017-01-27T08:01:45.591Z,1009.07
2017-01-27T08:02:26.111Z,1009.06
2017-01-27T08:03:06.586Z,1009.07
2017-01-27T08:03:47.164Z,1009.11
2017-01-27T08:04:27.608Z,1009.05
2017-01-27T08:05:08.133Z,1009.05
2017-01-27T08:05:48.587Z,1009.06
2017-01-27T08:06:29.100Z,1009.06
2017-01-27T08:07:09.608Z,1009.05
2017-01-27T08:07:50.094Z,1009.11
2017-01-27T08:08:30.615Z,1009.07
2017-01-27T08:09:11.119Z,1009.02
2017-01-27T08:09:51.626Z,1009.06
2017-01-27T08:10:32.135Z,1009.07
2017-01-27T08:11:12.628Z,1009.11
2017-01-27T08:11:53.110Z,1009.1
2017-01-27T08:12:33.613Z,1009.11
2017-01-27T08:13:14.140Z,1009.17
2017-01-27T08:13:54.668Z,1009.17